Time;durP1;ratioP1;P1;durP2;ratioP2;P2;SDS_P1;SDS_P2;PMS_P1;PMS_P2;Temp;Humidity;BMP_temperature;BMP_pressure;BME280_temperature;BME280_humidity;BME280_pressure;Samples;Min_cycle;Max_cycle;Signal;HPM_P1;HPM_P2
2022/09/24 00:01:37;;;;;;;2.08;0.50;;;;;;;;;;6126201;23;20017;-41
2022/09/24 00:04:05;;;;;;;3.30;0.83;;;;;;;;;;6126101;23;20021;-44
2022/09/24 00:06:34;;;;;;;2.13;0.47;;;;;;;;;;6124584;23;20017;-41
2022/09/24 00:09:01;;;;;;;1.98;0.40;;;;;;;;;;6123985;23;20053;-42
2022/09/24 00:11:29;;;;;;;1.77;0.50;;;;;;;;;;6124926;23;20033;-40
2022/09/24 00:13:57;;;;;;;2.22;0.70;;;;;;;;;;6132212;23;20089;-40
2022/09/24 00:16:25;;;;;;;2.50;0.70;;;;;;;;;;6121229;23;20064;-43
2022/09/24 00:18:52;;;;;;;2.20;0.60;;;;;;;;;;6132043;23;20072;-41
2022/09/24 00:21:20;;;;;;;2.08;0.50;;;;;;;;;;6118310;23;20199;-40
2022/09/24 00:23:49;;;;;;;9.50;1.10;;;;;;;;;;6124392;23;20031;-41
2022/09/24 00:29:00;;;;;;;2.10;0.57;;;;;;;;;;6126711;23;20021;-41
2022/09/24 00:31:28;;;;;;;2.47;0.55;;;;;;;;;;6126782;23;20022;-40
2022/09/24 00:33:54;;;;;;;2.50;0.45;;;;;;;;;;6123365;23;20456;-41
2022/09/24 00:36:22;;;;;;;2.22;0.57;;;;;;;;;;6129445;23;20014;-40
2022/09/24 00:38:49;;;;;;;2.28;0.50;;;;;;;;;;6120567;23;20018;-44
2022/09/24 00:41:15;;;;;;;5.13;1.23;;;;;;;;;;6130102;23;20021;-42
2022/09/24 00:43:42;;;;;;;1.77;0.32;;;;;;;;;;6121317;23;20009;-40
2022/09/24 00:46:13;;;;;;;2.13;0.50;;;;;;;;;;6127371;23;20074;-40
2022/09/24 00:48:41;;;;;;;2.35;0.45;;;;;;;;;;6128881;23;20013;-41
2022/09/24 00:51:09;;;;;;;2.25;0.60;;;;;;;;;;6127054;23;20365;-41
2022/09/24 00:53:36;;;;;;;2.13;0.50;;;;;;;;;;6128455;23;20017;-42
2022/09/24 00:56:03;;;;;;;2.08;0.50;;;;;;;;;;6122249;23;20064;-41
2022/09/24 00:58:30;;;;;;;2.05;0.50;;;;;;;;;;6129775;23;20017;-43
2022/09/24 01:00:58;;;;;;;2.10;0.40;;;;;;;;;;6122221;23;20456;-41
2022/09/24 01:03:27;;;;;;;1.90;0.40;;;;;;;;;;6128502;23;20085;-42
2022/09/24 01:05:56;;;;;;;3.00;1.37;;;;;;;;;;6125552;23;20017;-40
2022/09/24 01:08:22;;;;;;;1.95;0.50;;;;;;;;;;6124704;23;20028;-43
2022/09/24 01:10:59;;;;;;;1.95;0.55;;;;;;;;;;6123993;23;20017;-39
2022/09/24 01:13:39;;;;;;;2.17;0.50;;;;;;;;;;6123763;23;20354;-40
2022/09/24 01:16:07;;;;;;;2.72;0.82;;;;;;;;;;6129671;23;20088;-39
2022/09/24 01:18:36;;;;;;;2.07;0.57;;;;;;;;;;6118897;23;20018;-42
2022/09/24 01:21:18;;;;;;;2.25;0.45;;;;;;;;;;6131500;23;20022;-42
2022/09/24 01:23:56;;;;;;;1.92;0.50;;;;;;;;;;6109120;23;20064;-41
2022/09/24 01:26:31;;;;;;;2.17;0.77;;;;;;;;;;6127685;23;20013;-41
2022/09/24 01:29:05;;;;;;;2.53;0.68;;;;;;;;;;6130647;23;20013;-39
2022/09/24 01:31:34;;;;;;;2.43;0.60;;;;;;;;;;6124943;23;20021;-39
2022/09/24 01:34:04;;;;;;;1.88;0.40;;;;;;;;;;6121066;23;20013;-45
2022/09/24 01:36:31;;;;;;;2.15;0.60;;;;;;;;;;6114302;23;20040;-41
2022/09/24 01:38:59;;;;;;;2.03;0.50;;;;;;;;;;6123098;23;20014;-41
2022/09/24 01:41:26;;;;;;;2.15;0.55;;;;;;;;;;6119646;23;20551;-40
2022/09/24 01:43:52;;;;;;;2.07;0.40;;;;;;;;;;6107234;23;20018;-39
2022/09/24 01:46:20;;;;;;;1.55;0.30;;;;;;;;;;6130360;23;20013;-40
2022/09/24 01:48:49;;;;;;;2.85;0.32;;;;;;;;;;6132057;23;20088;-42
2022/09/24 01:51:18;;;;;;;2.00;0.50;;;;;;;;;;6121749;23;20014;-42
2022/09/24 01:53:47;;;;;;;2.95;0.70;;;;;;;;;;6125576;23;20373;-40
2022/09/24 01:56:16;;;;;;;1.83;0.50;;;;;;;;;;6131031;23;20162;-42
2022/09/24 01:58:46;;;;;;;2.33;0.50;;;;;;;;;;6125188;23;20028;-42
2022/09/24 02:01:15;;;;;;;2.22;0.60;;;;;;;;;;6128266;23;20029;-42
2022/09/24 02:03:44;;;;;;;1.60;0.40;;;;;;;;;;6123592;23;20021;-41
2022/09/24 02:06:18;;;;;;;1.90;0.43;;;;;;;;;;6123233;23;20018;-42
2022/09/24 02:08:45;;;;;;;2.50;0.90;;;;;;;;;;6132666;23;20017;-42
2022/09/24 02:11:13;;;;;;;1.75;0.40;;;;;;;;;;6119332;23;20022;-40
2022/09/24 02:13:46;;;;;;;2.60;0.70;;;;;;;;;;6128383;23;20269;-43
2022/09/24 02:16:15;;;;;;;3.97;0.85;;;;;;;;;;6126328;23;20021;-41
2022/09/24 02:18:42;;;;;;;2.83;0.65;;;;;;;;;;6133303;23;20021;-41
2022/09/24 02:21:10;;;;;;;2.10;0.50;;;;;;;;;;6120048;23;20414;-39
2022/09/24 02:23:40;;;;;;;4.15;0.70;;;;;;;;;;6121149;23;20084;-41
2022/09/24 02:26:07;;;;;;;1.77;0.35;;;;;;;;;;6128870;23;20072;-40
2022/09/24 02:28:34;;;;;;;2.25;0.57;;;;;;;;;;6121642;23;20049;-41
2022/09/24 02:31:03;;;;;;;2.03;0.40;;;;;;;;;;6126201;23;20022;-41
2022/09/24 02:36:14;;;;;;;2.05;0.50;;;;;;;;;;6122366;23;20480;-44
2022/09/24 02:38:42;;;;;;;1.60;0.30;;;;;;;;;;6129606;23;20018;-44
2022/09/24 02:41:08;;;;;;;1.70;0.45;;;;;;;;;;6124830;23;20032;-41
2022/09/24 02:43:35;;;;;;;2.15;0.47;;;;;;;;;;6125790;23;20013;-42
2022/09/24 02:46:10;;;;;;;1.73;0.47;;;;;;;;;;6121374;23;20068;-41
2022/09/24 02:48:37;;;;;;;1.67;0.35;;;;;;;;;;6129180;23;20096;-41
2022/09/24 02:51:04;;;;;;;2.13;0.52;;;;;;;;;;6128665;23;20021;-42
2022/09/24 02:53:30;;;;;;;1.88;0.35;;;;;;;;;;6122867;23;20017;-39
2022/09/24 02:55:59;;;;;;;2.10;0.55;;;;;;;;;;6126919;23;20024;-40
2022/09/24 02:58:26;;;;;;;1.97;0.50;;;;;;;;;;6117233;23;20072;-40
2022/09/24 03:00:53;;;;;;;2.45;0.45;;;;;;;;;;6122215;23;20025;-40
2022/09/24 03:03:21;;;;;;;2.88;1.25;;;;;;;;;;6113217;23;20064;-40
2022/09/24 03:05:48;;;;;;;1.65;0.45;;;;;;;;;;6122395;23;20286;-43
2022/09/24 03:08:14;;;;;;;1.77;0.30;;;;;;;;;;6103402;23;20013;-41
2022/09/24 03:10:41;;;;;;;1.97;0.50;;;;;;;;;;6121740;23;20084;-40
2022/09/24 03:13:09;;;;;;;2.88;0.75;;;;;;;;;;6125550;23;20441;-41
2022/09/24 03:15:36;;;;;;;2.78;0.40;;;;;;;;;;6114547;23;20045;-41
2022/09/24 03:18:03;;;;;;;1.40;0.30;;;;;;;;;;6127436;23;20065;-41
2022/09/24 03:20:29;;;;;;;1.70;0.45;;;;;;;;;;6120829;23;20021;-40
2022/09/24 03:22:56;;;;;;;1.67;0.43;;;;;;;;;;6136355;23;20013;-40
2022/09/24 03:25:24;;;;;;;2.22;0.60;;;;;;;;;;6126058;23;20445;-40
2022/09/24 03:27:51;;;;;;;1.80;0.60;;;;;;;;;;6123190;23;20017;-41
2022/09/24 03:33:03;;;;;;;2.00;0.63;;;;;;;;;;6131361;23;20460;-41
2022/09/24 03:35:29;;;;;;;2.07;0.60;;;;;;;;;;6124916;23;20456;-42
2022/09/24 03:37:56;;;;;;;2.10;0.50;;;;;;;;;;6128781;23;20520;-41
2022/09/24 03:40:24;;;;;;;2.28;0.70;;;;;;;;;;6131612;23;20076;-40
2022/09/24 03:42:50;;;;;;;1.70;0.40;;;;;;;;;;6131145;23;20013;-40
2022/09/24 03:45:17;;;;;;;3.67;1.00;;;;;;;;;;6122341;23;20033;-40
2022/09/24 03:47:45;;;;;;;2.03;0.47;;;;;;;;;;6130022;23;20511;-41
2022/09/24 03:50:11;;;;;;;2.20;0.47;;;;;;;;;;6113301;23;20076;-40
2022/09/24 03:52:38;;;;;;;2.45;0.80;;;;;;;;;;6128889;23;20440;-40
2022/09/24 03:55:05;;;;;;;1.60;0.40;;;;;;;;;;6121978;23;20445;-43
2022/09/24 03:57:31;;;;;;;2.00;0.50;;;;;;;;;;6128512;23;20420;-40
2022/09/24 03:59:58;;;;;;;2.77;0.70;;;;;;;;;;6118784;23;20441;-41
2022/09/24 04:02:25;;;;;;;3.80;1.15;;;;;;;;;;6128966;23;20116;-41
2022/09/24 04:04:52;;;;;;;3.03;1.02;;;;;;;;;;6126159;23;20088;-41
2022/09/24 04:07:19;;;;;;;2.72;0.80;;;;;;;;;;6122872;23;20018;-40
2022/09/24 04:09:47;;;;;;;2.58;0.70;;;;;;;;;;6130970;23;20395;-40
2022/09/24 04:12:14;;;;;;;2.43;0.80;;;;;;;;;;6121796;23;20128;-41
2022/09/24 04:14:41;;;;;;;2.28;0.57;;;;;;;;;;6134386;23;20014;-41
2022/09/24 04:17:07;;;;;;;2.38;0.75;;;;;;;;;;6124468;23;20013;-44
2022/09/24 04:19:33;;;;;;;2.50;0.68;;;;;;;;;;6133887;23;20517;-41
2022/09/24 04:22:01;;;;;;;2.90;1.15;;;;;;;;;;6127277;23;20380;-41
2022/09/24 04:24:28;;;;;;;3.27;1.53;;;;;;;;;;6131517;23;20463;-41
2022/09/24 04:26:54;;;;;;;2.83;0.77;;;;;;;;;;6132515;23;20396;-43
2022/09/24 04:29:21;;;;;;;2.97;0.77;;;;;;;;;;6127855;23;20018;-42
2022/09/24 04:31:47;;;;;;;3.10;1.00;;;;;;;;;;6134374;23;20028;-42
2022/09/24 04:34:14;;;;;;;2.67;0.70;;;;;;;;;;6133133;23;20525;-41
2022/09/24 04:36:40;;;;;;;2.80;0.70;;;;;;;;;;6125221;23;20068;-41
2022/09/24 04:39:09;;;;;;;3.72;1.25;;;;;;;;;;6116409;23;20018;-41
2022/09/24 04:41:37;;;;;;;3.05;0.82;;;;;;;;;;6130826;23;20017;-41
2022/09/24 04:44:04;;;;;;;4.10;1.88;;;;;;;;;;6132177;23;20350;-40
2022/09/24 04:46:32;;;;;;;3.28;1.15;;;;;;;;;;6125167;23;20487;-40
2022/09/24 04:48:58;;;;;;;5.97;1.10;;;;;;;;;;6129362;23;20029;-46
2022/09/24 04:51:25;;;;;;;2.42;0.60;;;;;;;;;;6132031;23;20543;-40
2022/09/24 04:53:51;;;;;;;2.40;0.80;;;;;;;;;;6130618;23;20032;-40
2022/09/24 04:56:19;;;;;;;4.13;1.33;;;;;;;;;;6129874;23;20021;-43
2022/09/24 04:58:50;;;;;;;3.38;1.13;;;;;;;;;;6135092;23;20017;-41
2022/09/24 05:01:17;;;;;;;6.60;1.03;;;;;;;;;;6131529;23;20429;-41
2022/09/24 05:03:45;;;;;;;5.18;1.45;;;;;;;;;;6127429;23;20377;-40
2022/09/24 05:06:11;;;;;;;3.30;1.05;;;;;;;;;;6132316;23;20503;-39
2022/09/24 05:08:38;;;;;;;2.58;0.85;;;;;;;;;;6129853;23;20060;-44
2022/09/24 05:11:04;;;;;;;3.42;1.08;;;;;;;;;;6134589;23;20025;-40
2022/09/24 05:13:32;;;;;;;2.60;0.90;;;;;;;;;;6130158;23;20023;-41
2022/09/24 05:16:00;;;;;;;3.65;0.73;;;;;;;;;;6137919;23;20024;-43
2022/09/24 05:18:26;;;;;;;2.80;0.60;;;;;;;;;;6129191;23;20089;-42
2022/09/24 05:20:53;;;;;;;2.80;0.90;;;;;;;;;;6136029;23;20073;-41
2022/09/24 05:23:20;;;;;;;4.13;0.98;;;;;;;;;;6128718;23;20020;-42
2022/09/24 05:28:27;;;;;;;3.08;1.10;;;;;;;;;;6083092;23;20464;-40
2022/09/24 05:30:57;;;;;;;3.05;0.82;;;;;;;;;;6131428;23;20010;-41
2022/09/24 05:33:24;;;;;;;4.32;1.15;;;;;;;;;;6135062;23;20080;-42
2022/09/24 05:35:53;;;;;;;2.33;0.70;;;;;;;;;;6126272;23;20014;-42
2022/09/24 05:38:19;;;;;;;2.20;0.43;;;;;;;;;;6132511;23;20041;-43
2022/09/24 05:40:49;;;;;;;3.50;0.93;;;;;;;;;;6130231;23;20021;-41
2022/09/24 05:43:16;;;;;;;2.95;0.68;;;;;;;;;;6136608;23;20532;-43
2022/09/24 05:45:44;;;;;;;2.40;0.60;;;;;;;;;;6120537;23;20025;-42
2022/09/24 05:48:12;;;;;;;3.92;1.25;;;;;;;;;;6135134;23;20017;-42
2022/09/24 05:50:38;;;;;;;9.93;1.53;;;;;;;;;;6131994;23;20499;-40
2022/09/24 05:53:06;;;;;;;2.85;0.80;;;;;;;;;;6132640;23;20452;-41
2022/09/24 05:55:33;;;;;;;1.85;0.52;;;;;;;;;;6133500;23;20029;-41
2022/09/24 05:58:06;;;;;;;2.85;1.15;;;;;;;;;;6120610;23;20365;-41
2022/09/24 06:00:33;;;;;;;2.70;1.00;;;;;;;;;;6133217;23;20444;-41
2022/09/24 06:03:05;;;;;;;3.23;1.00;;;;;;;;;;6130251;23;20053;-40
2022/09/24 06:05:34;;;;;;;2.97;0.88;;;;;;;;;;6134159;23;20349;-43
2022/09/24 06:08:01;;;;;;;5.32;1.25;;;;;;;;;;6128555;23;20460;-42
2022/09/24 06:10:27;;;;;;;3.45;0.82;;;;;;;;;;6134228;23;20013;-45
2022/09/24 06:12:54;;;;;;;6.72;0.95;;;;;;;;;;6132713;23;20017;-45
2022/09/24 06:15:20;;;;;;;2.40;0.60;;;;;;;;;;6130920;23;20013;-40
2022/09/24 06:17:47;;;;;;;2.38;1.00;;;;;;;;;;6134297;23;20068;-40
2022/09/24 06:20:14;;;;;;;3.65;0.50;;;;;;;;;;6128969;23;20028;-41
2022/09/24 06:22:42;;;;;;;2.20;0.60;;;;;;;;;;6135337;23;20041;-42
2022/09/24 06:25:09;;;;;;;1.88;0.45;;;;;;;;;;6125194;23;20028;-41
2022/09/24 06:27:36;;;;;;;3.93;1.37;;;;;;;;;;6133344;23;20036;-42
2022/09/24 06:30:03;;;;;;;1.98;0.35;;;;;;;;;;6130947;23;20061;-43
2022/09/24 06:32:30;;;;;;;2.78;0.55;;;;;;;;;;6131607;23;20021;-43
2022/09/24 06:34:56;;;;;;;1.30;0.20;;;;;;;;;;6130628;23;20040;-42
2022/09/24 06:37:23;;;;;;;1.77;0.30;;;;;;;;;;6133139;23;20018;-43
2022/09/24 06:39:51;;;;;;;1.97;0.40;;;;;;;;;;6126198;23;20326;-42
2022/09/24 06:42:19;;;;;;;1.98;0.60;;;;;;;;;;6130025;23;20336;-42
2022/09/24 06:44:47;;;;;;;1.83;0.28;;;;;;;;;;6131670;23;20017;-42
2022/09/24 06:47:14;;;;;;;2.75;0.68;;;;;;;;;;6132353;23;20034;-43
2022/09/24 06:49:40;;;;;;;4.95;1.60;;;;;;;;;;6132925;23;20044;-46
2022/09/24 06:52:07;;;;;;;4.50;0.50;;;;;;;;;;6130187;23;20097;-45
2022/09/24 06:54:34;;;;;;;1.55;0.30;;;;;;;;;;6134760;23;20087;-43
2022/09/24 06:57:01;;;;;;;2.97;0.77;;;;;;;;;;6129422;23;20406;-42
2022/09/24 06:59:28;;;;;;;1.55;0.40;;;;;;;;;;6133768;23;20017;-42
2022/09/24 07:01:54;;;;;;;3.25;0.45;;;;;;;;;;6129413;23;20280;-42
2022/09/24 07:04:21;;;;;;;1.73;0.30;;;;;;;;;;6130783;23;20024;-42
2022/09/24 07:09:32;;;;;;;2.05;0.45;;;;;;;;;;6132938;23;20092;-42
2022/09/24 07:12:00;;;;;;;1.42;0.30;;;;;;;;;;6132678;23;20013;-43
2022/09/24 07:14:28;;;;;;;1.98;0.40;;;;;;;;;;6134921;23;20013;-44
2022/09/24 07:16:54;;;;;;;1.63;0.40;;;;;;;;;;6128336;23;20021;-42
2022/09/24 07:19:21;;;;;;;3.00;0.35;;;;;;;;;;6133744;23;20420;-41
2022/09/24 07:21:47;;;;;;;2.17;0.73;;;;;;;;;;6122913;23;20389;-44
2022/09/24 07:24:14;;;;;;;2.10;0.50;;;;;;;;;;6132210;23;20365;-41
2022/09/24 07:26:40;;;;;;;2.13;0.35;;;;;;;;;;6128939;23;20381;-45
2022/09/24 07:29:07;;;;;;;1.37;0.30;;;;;;;;;;6129462;23;20021;-45
2022/09/24 07:31:35;;;;;;;1.70;0.30;;;;;;;;;;6132297;23;20072;-44
2022/09/24 07:34:01;;;;;;;2.15;0.52;;;;;;;;;;6131127;23;20025;-45
2022/09/24 07:36:30;;;;;;;3.65;0.55;;;;;;;;;;6130227;23;20068;-42
2022/09/24 07:38:58;;;;;;;1.73;0.35;;;;;;;;;;6134280;23;20013;-42
2022/09/24 07:41:25;;;;;;;3.67;0.83;;;;;;;;;;6132947;23;20021;-44
2022/09/24 07:43:52;;;;;;;1.50;0.40;;;;;;;;;;6125081;23;20018;-44
2022/09/24 07:46:18;;;;;;;4.38;0.55;;;;;;;;;;6133065;23;20014;-40
2022/09/24 07:48:48;;;;;;;1.50;0.30;;;;;;;;;;6124540;23;20045;-40
2022/09/24 07:51:15;;;;;;;1.63;0.47;;;;;;;;;;6135967;23;20013;-40
2022/09/24 07:53:42;;;;;;;2.37;0.40;;;;;;;;;;6128781;23;20029;-45
2022/09/24 07:56:08;;;;;;;1.75;0.50;;;;;;;;;;6134174;23;20013;-44
2022/09/24 07:58:34;;;;;;;1.73;0.45;;;;;;;;;;6129253;23;20073;-42
2022/09/24 08:01:01;;;;;;;1.75;0.40;;;;;;;;;;6133123;23;20021;-41
2022/09/24 08:03:28;;;;;;;2.10;0.40;;;;;;;;;;6127178;23;20032;-41
2022/09/24 08:05:58;;;;;;;1.67;0.40;;;;;;;;;;6132814;23;20017;-42
2022/09/24 08:08:25;;;;;;;1.95;0.52;;;;;;;;;;6134350;23;20028;-40
2022/09/24 08:10:51;;;;;;;1.33;0.20;;;;;;;;;;6132647;23;20173;-40
2022/09/24 08:13:18;;;;;;;1.20;0.30;;;;;;;;;;6128987;23;20017;-40
2022/09/24 08:15:44;;;;;;;1.73;0.38;;;;;;;;;;6134220;23;20040;-40
2022/09/24 08:18:11;;;;;;;1.77;0.40;;;;;;;;;;6127924;23;20468;-42
2022/09/24 08:20:38;;;;;;;2.47;0.63;;;;;;;;;;6134666;23;20022;-41
2022/09/24 08:23:08;;;;;;;1.45;0.30;;;;;;;;;;6129359;23;20448;-39
2022/09/24 08:25:35;;;;;;;1.75;0.45;;;;;;;;;;6133521;23;20018;-41
2022/09/24 08:28:02;;;;;;;1.20;0.28;;;;;;;;;;6128992;23;20500;-40
2022/09/24 08:30:29;;;;;;;1.47;0.30;;;;;;;;;;6131341;23;20089;-42
2022/09/24 08:32:56;;;;;;;1.55;0.20;;;;;;;;;;6132903;23;20026;-42
2022/09/24 08:35:23;;;;;;;1.42;0.20;;;;;;;;;;6129207;23;20026;-43
2022/09/24 08:37:50;;;;;;;1.30;0.30;;;;;;;;;;6132138;23;20315;-43
2022/09/24 08:40:19;;;;;;;1.38;0.35;;;;;;;;;;6133366;23;20088;-42
2022/09/24 08:42:49;;;;;;;2.53;0.63;;;;;;;;;;6130704;23;20021;-41
2022/09/24 08:48:02;;;;;;;1.40;0.30;;;;;;;;;;6132874;23;20024;-43
2022/09/24 08:50:30;;;;;;;1.48;0.30;;;;;;;;;;6130729;23;20027;-41
2022/09/24 08:53:06;;;;;;;1.40;0.20;;;;;;;;;;6132172;23;20044;-43
2022/09/24 08:55:37;;;;;;;2.40;0.43;;;;;;;;;;6130572;23;20475;-46
2022/09/24 08:58:21;;;;;;;1.58;0.25;;;;;;;;;;6133894;23;20232;-43
2022/09/24 09:00:51;;;;;;;1.45;0.30;;;;;;;;;;6136693;23;20014;-43
2022/09/24 09:03:24;;;;;;;1.55;0.40;;;;;;;;;;6130346;23;20108;-41
2022/09/24 09:05:53;;;;;;;1.23;0.20;;;;;;;;;;6135255;23;20036;-41
2022/09/24 09:08:24;;;;;;;1.50;0.30;;;;;;;;;;6125018;23;20017;-40
2022/09/24 09:10:53;;;;;;;1.75;0.40;;;;;;;;;;6136356;23;20018;-41
2022/09/24 09:13:21;;;;;;;1.85;0.45;;;;;;;;;;6130749;23;20095;-41
2022/09/24 09:15:50;;;;;;;3.55;1.55;;;;;;;;;;6134008;23;20460;-45
2022/09/24 09:18:18;;;;;;;1.42;0.30;;;;;;;;;;6125769;23;20022;-42
2022/09/24 09:20:46;;;;;;;1.83;0.40;;;;;;;;;;6136681;23;20018;-43
2022/09/24 09:23:15;;;;;;;1.58;0.30;;;;;;;;;;6128017;23;20025;-42
2022/09/24 09:25:46;;;;;;;1.75;0.50;;;;;;;;;;6135312;23;20021;-42
2022/09/24 09:28:16;;;;;;;1.88;0.35;;;;;;;;;;6128311;23;20056;-42
2022/09/24 09:30:46;;;;;;;1.98;0.30;;;;;;;;;;6132622;23;20320;-43
2022/09/24 09:33:20;;;;;;;1.50;0.40;;;;;;;;;;6134574;23;20379;-43
2022/09/24 09:35:49;;;;;;;1.33;0.30;;;;;;;;;;6128022;23;20041;-45
2022/09/24 09:38:19;;;;;;;1.50;0.30;;;;;;;;;;6133007;23;20014;-41
2022/09/24 09:40:48;;;;;;;1.85;0.45;;;;;;;;;;6131069;23;20072;-43
2022/09/24 09:43:17;;;;;;;1.77;0.60;;;;;;;;;;6134326;23;20025;-40
2022/09/24 09:45:46;;;;;;;1.43;0.30;;;;;;;;;;6126564;23;20023;-41
2022/09/24 09:48:15;;;;;;;1.48;0.20;;;;;;;;;;6135093;23;20088;-43
2022/09/24 09:50:43;;;;;;;1.15;0.25;;;;;;;;;;6129908;23;20519;-43
2022/09/24 09:53:18;;;;;;;1.52;0.22;;;;;;;;;;6131142;23;20017;-43
2022/09/24 09:55:50;;;;;;;2.33;0.30;;;;;;;;;;6131180;23;20032;-44
2022/09/24 09:58:19;;;;;;;6.53;0.77;;;;;;;;;;6131342;23;20018;-43
2022/09/24 10:00:48;;;;;;;1.50;0.30;;;;;;;;;;6128530;23;20014;-42
2022/09/24 10:03:22;;;;;;;2.30;0.57;;;;;;;;;;6133752;23;20059;-45
2022/09/24 10:05:52;;;;;;;1.83;0.50;;;;;;;;;;6134216;23;20024;-44
2022/09/24 10:08:20;;;;;;;1.55;0.30;;;;;;;;;;6128123;23;20018;-45
2022/09/24 10:10:54;;;;;;;1.77;0.40;;;;;;;;;;6130184;23;20408;-42
2022/09/24 10:13:22;;;;;;;1.70;0.40;;;;;;;;;;6126899;23;20027;-41
2022/09/24 10:15:49;;;;;;;3.15;0.73;;;;;;;;;;6131492;23;20085;-41
2022/09/24 10:18:16;;;;;;;1.80;0.40;;;;;;;;;;6130449;23;20294;-47
2022/09/24 10:20:47;;;;;;;3.35;0.60;;;;;;;;;;6136129;23;20087;-41
2022/09/24 10:23:18;;;;;;;2.57;0.57;;;;;;;;;;6129640;23;20021;-41
2022/09/24 10:25:49;;;;;;;2.08;0.40;;;;;;;;;;6133798;23;20021;-44
2022/09/24 10:31:05;;;;;;;1.67;0.35;;;;;;;;;;6130516;23;20092;-42
2022/09/24 10:33:35;;;;;;;2.05;0.50;;;;;;;;;;6135871;23;20013;-41
2022/09/24 10:36:03;;;;;;;2.67;0.77;;;;;;;;;;6127716;23;20520;-40
2022/09/24 10:38:30;;;;;;;1.75;0.40;;;;;;;;;;6133989;23;20418;-44
2022/09/24 10:41:00;;;;;;;1.58;0.30;;;;;;;;;;6130032;23;20021;-40
2022/09/24 10:43:26;;;;;;;2.30;0.63;;;;;;;;;;6130528;23;20100;-42
2022/09/24 10:46:07;;;;;;;2.80;0.57;;;;;;;;;;6130453;23;20518;-41
2022/09/24 10:48:35;;;;;;;1.27;0.30;;;;;;;;;;6135910;23;20013;-41
2022/09/24 10:51:06;;;;;;;2.35;0.68;;;;;;;;;;6130058;23;20017;-42
2022/09/24 10:53:40;;;;;;;1.77;0.45;;;;;;;;;;6129806;23;20017;-42
2022/09/24 10:56:11;;;;;;;2.05;0.43;;;;;;;;;;6134150;23;20029;-42
2022/09/24 10:58:47;;;;;;;2.38;0.40;;;;;;;;;;6127061;23;20017;-42
2022/09/24 11:01:18;;;;;;;1.73;0.30;;;;;;;;;;6129403;23;20014;-45
2022/09/24 11:03:57;;;;;;;1.92;0.60;;;;;;;;;;6134870;23;20128;-42
2022/09/24 11:06:35;;;;;;;1.75;0.43;;;;;;;;;;6117096;23;20555;-42
2022/09/24 11:09:07;;;;;;;1.75;0.47;;;;;;;;;;6134101;23;20080;-44
2022/09/24 11:11:42;;;;;;;1.50;0.30;;;;;;;;;;6130744;23;20407;-42
2022/09/24 11:14:17;;;;;;;2.00;0.63;;;;;;;;;;6135731;23;20468;-41
2022/09/24 11:16:52;;;;;;;1.45;0.30;;;;;;;;;;6128199;23;20361;-42
2022/09/24 11:19:27;;;;;;;1.83;0.30;;;;;;;;;;6131956;23;20018;-45
2022/09/24 11:22:03;;;;;;;2.42;0.70;;;;;;;;;;6128719;23;20013;-42
2022/09/24 11:24:39;;;;;;;1.42;0.30;;;;;;;;;;6127626;23;20100;-44
2022/09/24 11:27:12;;;;;;;2.73;0.43;;;;;;;;;;6134145;23;20021;-43
2022/09/24 11:29:46;;;;;;;1.55;0.50;;;;;;;;;;6129467;23;20021;-43
2022/09/24 11:32:18;;;;;;;1.90;0.38;;;;;;;;;;6131078;23;20018;-43
2022/09/24 11:34:58;;;;;;;2.10;0.55;;;;;;;;;;6126898;23;20025;-44
2022/09/24 11:37:29;;;;;;;3.25;0.65;;;;;;;;;;6128487;23;20417;-47
2022/09/24 11:40:09;;;;;;;3.70;1.00;;;;;;;;;;6133709;23;20018;-43
2022/09/24 11:42:42;;;;;;;2.22;0.88;;;;;;;;;;6133006;23;20080;-43
2022/09/24 11:45:24;;;;;;;1.67;0.38;;;;;;;;;;6129061;23;20028;-41
2022/09/24 11:47:59;;;;;;;1.70;0.43;;;;;;;;;;6134835;23;20024;-44
2022/09/24 11:50:33;;;;;;;2.67;0.50;;;;;;;;;;6127334;23;20021;-41
2022/09/24 11:53:01;;;;;;;1.80;0.30;;;;;;;;;;6134259;23;20017;-40
2022/09/24 11:55:33;;;;;;;1.85;0.32;;;;;;;;;;6122713;23;20380;-41
2022/09/24 11:58:04;;;;;;;1.80;0.55;;;;;;;;;;6128039;23;20019;-41
2022/09/24 12:00:34;;;;;;;2.08;0.60;;;;;;;;;;6133519;23;20020;-41
2022/09/24 12:03:05;;;;;;;1.70;0.43;;;;;;;;;;6127469;23;20515;-41
2022/09/24 12:05:35;;;;;;;2.10;0.80;;;;;;;;;;6134003;23;20025;-43
2022/09/24 12:08:06;;;;;;;1.55;0.30;;;;;;;;;;6126670;23;20014;-42
2022/09/24 12:10:35;;;;;;;1.60;0.40;;;;;;;;;;6132032;23;20018;-44
2022/09/24 12:13:04;;;;;;;2.00;0.60;;;;;;;;;;6134088;23;20020;-43
2022/09/24 12:15:33;;;;;;;1.58;0.40;;;;;;;;;;6126847;23;20013;-43
2022/09/24 12:18:06;;;;;;;2.87;0.67;;;;;;;;;;6132218;23;20083;-43
2022/09/24 12:20:35;;;;;;;1.20;0.20;;;;;;;;;;6134449;23;20020;-42
2022/09/24 12:23:04;;;;;;;1.70;0.43;;;;;;;;;;6128954;23;20457;-42
2022/09/24 12:25:34;;;;;;;2.00;0.50;;;;;;;;;;6133589;23;20022;-40
2022/09/24 12:28:01;;;;;;;2.10;0.60;;;;;;;;;;6128625;23;20084;-42
2022/09/24 12:33:19;;;;;;;2.22;0.52;;;;;;;;;;6133834;23;20244;-44
2022/09/24 12:35:54;;;;;;;2.63;0.63;;;;;;;;;;6130398;23;20024;-42
2022/09/24 12:38:24;;;;;;;2.05;0.43;;;;;;;;;;6137556;23;20013;-42
2022/09/24 12:41:05;;;;;;;1.80;0.40;;;;;;;;;;6129208;23;20113;-41
2022/09/24 12:43:34;;;;;;;1.40;0.30;;;;;;;;;;6115167;23;20095;-43
2022/09/24 12:46:02;;;;;;;2.15;0.38;;;;;;;;;;6131495;23;20017;-42
2022/09/24 12:48:33;;;;;;;2.53;0.55;;;;;;;;;;6135961;23;20018;-44
2022/09/24 12:51:01;;;;;;;2.15;0.63;;;;;;;;;;6132162;23;20017;-43
2022/09/24 12:53:31;;;;;;;2.20;0.65;;;;;;;;;;6127705;23;20237;-43
2022/09/24 12:55:58;;;;;;;1.63;0.40;;;;;;;;;;6132787;23;20017;-43
2022/09/24 12:58:27;;;;;;;1.55;0.30;;;;;;;;;;6131481;23;20026;-44
2022/09/24 13:01:05;;;;;;;2.00;0.50;;;;;;;;;;6135066;23;20396;-42
2022/09/24 13:03:34;;;;;;;1.73;0.40;;;;;;;;;;6131156;23;20013;-41
2022/09/24 13:06:01;;;;;;;2.60;1.08;;;;;;;;;;6131221;23;20013;-42
2022/09/24 13:08:35;;;;;;;1.90;0.50;;;;;;;;;;6135443;23;20320;-43
2022/09/24 13:11:04;;;;;;;1.50;0.32;;;;;;;;;;6133891;23;20076;-43
2022/09/24 13:13:33;;;;;;;1.83;0.50;;;;;;;;;;6128436;23;20516;-44
2022/09/24 13:16:01;;;;;;;1.90;0.50;;;;;;;;;;6135230;23;20040;-42
2022/09/24 13:18:28;;;;;;;2.20;0.60;;;;;;;;;;6127475;23;20068;-43
2022/09/24 13:21:00;;;;;;;2.33;0.70;;;;;;;;;;6138052;23;20017;-47
2022/09/24 13:23:32;;;;;;;1.77;0.40;;;;;;;;;;6127754;23;20048;-41
2022/09/24 13:26:01;;;;;;;2.13;0.52;;;;;;;;;;6136203;23;20014;-42
2022/09/24 13:28:28;;;;;;;2.63;0.60;;;;;;;;;;6135325;23;20072;-41
2022/09/24 13:30:57;;;;;;;2.17;0.57;;;;;;;;;;6131764;23;20013;-41
2022/09/24 13:33:26;;;;;;;2.67;0.60;;;;;;;;;;6134199;23;20014;-42
2022/09/24 13:36:10;;;;;;;3.85;1.08;;;;;;;;;;6060928;23;20019;-41
2022/09/24 13:38:38;;;;;;;2.10;0.50;;;;;;;;;;6075416;23;20414;-40
2022/09/24 13:41:14;;;;;;;2.20;0.60;;;;;;;;;;6075390;23;20022;-42
2022/09/24 13:43:45;;;;;;;2.17;0.65;;;;;;;;;;6073438;23;20049;-46
2022/09/24 13:46:14;;;;;;;2.30;0.40;;;;;;;;;;6074254;23;20050;-45
2022/09/24 13:48:43;;;;;;;2.83;0.60;;;;;;;;;;6073945;23;20743;-41
2022/09/24 13:51:13;;;;;;;1.95;0.50;;;;;;;;;;6077006;23;20018;-42
2022/09/24 13:53:41;;;;;;;2.50;0.65;;;;;;;;;;6067153;23;20081;-43
2022/09/24 13:56:12;;;;;;;2.00;0.50;;;;;;;;;;6074882;23;20082;-43
2022/09/24 13:58:40;;;;;;;1.80;0.40;;;;;;;;;;6072631;23;20014;-43
2022/09/24 14:01:11;;;;;;;2.05;0.60;;;;;;;;;;6074565;23;20469;-42
2022/09/24 14:03:38;;;;;;;2.13;0.52;;;;;;;;;;6074543;23;20250;-46
2022/09/24 14:06:10;;;;;;;1.75;0.47;;;;;;;;;;6067823;23;20026;-42
2022/09/24 14:08:40;;;;;;;1.58;0.28;;;;;;;;;;6075334;23;20019;-43
2022/09/24 14:11:13;;;;;;;2.57;0.60;;;;;;;;;;6072148;23;20022;-42
2022/09/24 14:13:43;;;;;;;1.92;0.63;;;;;;;;;;6069909;23;20014;-40
2022/09/24 14:16:11;;;;;;;1.40;0.30;;;;;;;;;;6075767;23;20050;-41
2022/09/24 14:18:38;;;;;;;5.57;0.40;;;;;;;;;;6071329;23;20026;-41
2022/09/24 14:21:09;;;;;;;2.78;0.98;;;;;;;;;;6077522;23;20114;-40
2022/09/24 14:23:39;;;;;;;4.47;0.70;;;;;;;;;;6072724;23;20433;-41
2022/09/24 14:26:07;;;;;;;2.10;0.57;;;;;;;;;;6068485;23;20098;-41
2022/09/24 14:28:34;;;;;;;2.95;0.70;;;;;;;;;;6076270;23;20018;-40
2022/09/24 14:31:01;;;;;;;2.35;0.60;;;;;;;;;;6068690;23;20435;-42
2022/09/24 14:33:30;;;;;;;2.00;0.50;;;;;;;;;;6073431;23;20023;-46
2022/09/24 14:35:58;;;;;;;1.90;0.40;;;;;;;;;;6124916;23;20742;-44
2022/09/24 14:38:27;;;;;;;1.92;0.30;;;;;;;;;;6132553;23;20033;-41
2022/09/24 14:40:58;;;;;;;2.13;0.40;;;;;;;;;;6128854;23;20105;-42
2022/09/24 14:43:30;;;;;;;2.00;0.50;;;;;;;;;;6134428;23;20027;-43
2022/09/24 14:46:01;;;;;;;1.80;0.40;;;;;;;;;;6128493;23;20025;-42
2022/09/24 14:48:29;;;;;;;3.03;0.87;;;;;;;;;;6136585;23;20069;-40
2022/09/24 14:50:55;;;;;;;1.90;0.50;;;;;;;;;;6124991;23;20367;-40
2022/09/24 14:53:24;;;;;;;2.17;0.70;;;;;;;;;;6136394;23;20084;-41
2022/09/24 14:55:51;;;;;;;1.65;0.30;;;;;;;;;;6125318;23;20017;-42
2022/09/24 14:58:35;;;;;;;1.60;0.40;;;;;;;;;;6134117;23;20468;-41
2022/09/24 15:01:04;;;;;;;2.60;0.90;;;;;;;;;;6135503;23;20020;-41
2022/09/24 15:03:36;;;;;;;2.47;0.60;;;;;;;;;;6129481;23;20013;-39
2022/09/24 15:06:04;;;;;;;2.20;0.40;;;;;;;;;;6134110;23;20037;-40
2022/09/24 15:08:30;;;;;;;1.50;0.30;;;;;;;;;;6128561;23;20123;-40
2022/09/24 15:10:58;;;;;;;2.35;0.65;;;;;;;;;;6132674;23;20017;-43
2022/09/24 15:13:28;;;;;;;1.93;0.43;;;;;;;;;;6127214;23;20022;-42
2022/09/24 15:16:01;;;;;;;7.10;1.10;;;;;;;;;;6134568;23;20017;-39